Time;durP1;ratioP1;P1;durP2;ratioP2;P2;SDS_P1;SDS_P2;PMS_P1;PMS_P2;Temp;Humidity;BMP_temperature;BMP_pressure;BME280_temperature;BME280_humidity;BME280_pressure;Samples;Min_cycle;Max_cycle;Signal;HPM_P1;HPM_P2
2021/08/02 00:00:07;;;;;;;7.50;4.72;;;15.20;90.80;;;;;;5053489;28;20013;-37
2021/08/02 00:03:01;;;;;;;6.85;4.78;;;15.20;90.30;;;;;;5053621;28;20100;-37
2021/08/02 00:05:33;;;;;;;8.48;4.65;;;15.20;90.30;;;;;;5053310;28;20095;-36
2021/08/02 00:08:03;;;;;;;8.30;5.15;;;15.10;90.50;;;;;;5053246;28;20052;-36
2021/08/02 00:10:31;;;;;;;14.25;5.82;;;15.20;90.60;;;;;;5053239;28;20040;-36
2021/08/02 00:13:14;;;;;;;8.95;5.32;;;15.20;90.30;;;;;;5053406;28;20112;-36
2021/08/02 00:15:41;;;;;;;9.13;5.00;;;15.00;90.70;;;;;;5052146;28;20090;-36
2021/08/02 00:18:08;;;;;;;8.70;5.32;;;15.00;90.90;;;;;;5052962;28;20055;-36
2021/08/02 00:20:35;;;;;;;9.95;5.13;;;14.90;91.10;;;;;;5052801;28;20036;-36
2021/08/02 00:23:04;;;;;;;13.85;6.50;;;15.00;91.10;;;;;;5052925;28;20463;-37
2021/08/02 00:25:30;;;;;;;9.85;5.97;;;14.90;90.70;;;;;;5052809;28;20016;-37
2021/08/02 00:27:56;;;;;;;12.43;6.40;;;14.80;91.10;;;;;;5052889;28;20128;-37
2021/08/02 00:30:25;;;;;;;12.75;6.30;;;14.80;91.30;;;;;;5052560;28;20055;-36
2021/08/02 00:32:52;;;;;;;13.00;6.47;;;14.80;91.30;;;;;;5052748;28;20453;-37
2021/08/02 00:35:18;;;;;;;12.35;6.32;;;14.70;91.60;;;;;;5052953;28;20033;-37
2021/08/02 00:37:58;;;;;;;13.85;5.90;;;14.70;91.50;;;;;;5052684;28;20020;-36
2021/08/02 00:40:39;;;;;;;;;;;14.60;91.70;;;;;;5053195;28;20017;-37
2021/08/02 00:43:35;;;;;;;;;;;14.50;91.90;;;;;;5053160;28;19911;-37
2021/08/02 00:46:01;;;;;;;8.35;5.60;;;14.40;92.10;;;;;;5053067;28;19912;-37
2021/08/02 00:48:29;;;;;;;14.75;5.78;;;14.40;91.70;;;;;;5052783;28;20520;-37
2021/08/02 00:50:59;;;;;;;8.13;6.30;;;14.40;91.80;;;;;;5052857;28;20032;-37
2021/08/02 00:53:27;;;;;;;9.60;6.38;;;14.40;92.00;;;;;;5052781;28;20045;-37
2021/08/02 00:55:59;;;;;;;7.40;6.30;;;14.30;91.90;;;;;;5052947;28;20512;-37
2021/08/02 00:58:28;;;;;;;9.52;5.78;;;14.30;92.10;;;;;;5052820;28;20040;-37
2021/08/02 01:00:54;;;;;;;10.57;6.07;;;14.30;92.10;;;;;;5052306;28;20465;-37
2021/08/02 01:03:20;;;;;;;6.95;5.25;;;14.20;92.00;;;;;;5052325;28;20021;-37
2021/08/02 01:05:51;;;;;;;10.45;6.10;;;14.20;92.20;;;;;;5050962;28;20079;-37
2021/08/02 01:08:28;;;;;;;10.60;6.45;;;14.20;91.90;;;;;;5052375;28;20029;-37
2021/08/02 01:10:56;;;;;;;11.68;5.88;;;14.10;91.80;;;;;;5052518;28;20032;-37
2021/08/02 01:13:25;;;;;;;8.57;5.93;;;14.20;91.60;;;;;;5052498;28;20483;-37
2021/08/02 01:15:54;;;;;;;13.15;5.93;;;14.10;91.40;;;;;;5052492;28;20021;-37
2021/08/02 01:18:22;;;;;;;10.35;6.20;;;14.10;91.60;;;;;;5052189;28;20029;-37
2021/08/02 01:20:50;;;;;;;12.27;5.28;;;14.10;91.60;;;;;;5052255;28;20021;-37
2021/08/02 01:23:16;;;;;;;11.98;6.20;;;14.10;91.50;;;;;;5052237;28;20079;-37
2021/08/02 01:25:42;;;;;;;14.00;7.13;;;14.10;91.40;;;;;;5052422;28;20025;-38
2021/08/02 01:28:14;;;;;;;8.43;5.80;;;14.20;91.30;;;;;;5052343;28;20243;-37
2021/08/02 01:30:49;;;;;;;9.73;6.03;;;14.10;91.30;;;;;;5051907;28;20077;-37
2021/08/02 01:33:18;;;;;;;12.27;6.88;;;14.20;90.90;;;;;;5052389;28;20032;-37
2021/08/02 01:35:44;;;;;;;10.10;5.05;;;14.10;90.80;;;;;;5052622;28;20103;-37
2021/08/02 01:38:14;;;;;;;14.68;5.00;;;14.20;90.80;;;;;;5052462;28;20025;-37
2021/08/02 01:40:41;;;;;;;6.80;4.57;;;14.20;90.30;;;;;;5052216;28;20033;-37
2021/08/02 01:43:08;;;;;;;9.27;4.65;;;14.30;90.30;;;;;;5052268;28;20017;-37
2021/08/02 01:45:55;;;;;;;5.28;3.97;;;14.40;89.60;;;;;;5052205;28;20017;-37
2021/08/02 01:49:01;;;;;;;9.00;4.53;;;14.40;89.30;;;;;;5052242;28;20032;-37
2021/08/02 01:51:47;;;;;;;10.65;5.15;;;14.30;89.60;;;;;;5052201;28;20021;-37
2021/08/02 01:54:43;;;;;;;8.65;4.30;;;14.40;89.10;;;;;;5052356;28;20536;-37
2021/08/02 01:57:15;;;;;;;7.90;4.10;;;14.40;88.90;;;;;;5052307;28;20055;-37
2021/08/02 01:59:48;;;;;;;11.57;4.53;;;14.30;89.30;;;;;;5052074;28;20021;-37
2021/08/02 02:02:15;;;;;;;11.18;4.15;;;14.20;89.70;;;;;;5052690;28;20068;-36
2021/08/02 02:05:12;;;;;;;7.50;3.85;;;14.20;89.70;;;;;;5055807;28;20025;-36
2021/08/02 02:08:04;;;;;;;8.75;4.53;;;14.10;89.60;;;;;;5055230;28;20060;-37
2021/08/02 02:10:38;;;;;;;13.75;4.22;;;14.10;89.50;;;;;;5054998;28;20037;-36
2021/08/02 02:13:24;;;;;;;11.52;4.43;;;14.10;89.20;;;;;;5055436;28;20030;-37
2021/08/02 02:15:53;;;;;;;9.43;4.60;;;14.10;89.60;;;;;;5055877;28;20052;-36
2021/08/02 02:18:21;;;;;;;15.45;4.88;;;13.90;90.20;;;;;;5055928;28;20161;-37
2021/08/02 02:20:49;;;;;;;9.32;4.53;;;14.00;90.20;;;;;;5053927;28;20079;-36
2021/08/02 02:23:15;;;;;;;16.40;5.65;;;14.00;89.80;;;;;;5055238;28;20021;-37
2021/08/02 02:25:42;;;;;;;11.23;4.28;;;13.90;90.20;;;;;;5055425;28;20155;-36
2021/08/02 02:28:08;;;;;;;7.82;4.95;;;13.90;90.10;;;;;;5055117;28;20025;-37
2021/08/02 02:30:36;;;;;;;12.65;4.45;;;13.90;90.10;;;;;;5055104;28;20049;-37
2021/08/02 02:33:03;;;;;;;14.63;4.63;;;13.90;89.90;;;;;;5055343;28;20338;-37
2021/08/02 02:35:29;;;;;;;15.25;7.20;;;13.90;89.70;;;;;;5053505;28;20029;-37
2021/08/02 02:37:55;;;;;;;10.02;5.03;;;13.90;90.20;;;;;;5054992;28;20349;-36
2021/08/02 02:40:21;;;;;;;7.40;4.18;;;13.80;90.10;;;;;;5055224;28;20048;-37
2021/08/02 02:42:48;;;;;;;5.45;4.22;;;13.80;90.40;;;;;;5054812;28;20028;-36
2021/08/02 02:45:14;;;;;;;4.63;3.75;;;13.80;90.60;;;;;;5055130;28;20389;-36
2021/08/02 02:47:41;;;;;;;13.40;6.35;;;13.80;90.60;;;;;;5055096;28;20445;-36
2021/08/02 02:50:08;;;;;;;11.85;5.30;;;13.80;90.70;;;;;;5054768;28;20025;-36
2021/08/02 02:52:35;;;;;;;10.35;4.85;;;13.80;90.50;;;;;;5055190;28;20029;-37
2021/08/02 02:55:05;;;;;;;7.32;4.03;;;13.70;91.00;;;;;;5054884;28;20025;-37
2021/08/02 02:57:31;;;;;;;12.80;4.47;;;13.70;91.30;;;;;;5054450;28;20040;-37
2021/08/02 02:59:57;;;;;;;9.05;4.50;;;13.80;91.10;;;;;;5054556;28;20043;-36
2021/08/02 03:02:24;;;;;;;8.13;4.82;;;13.80;90.80;;;;;;5053144;28;20025;-36
2021/08/02 03:04:56;;;;;;;7.13;4.25;;;13.80;90.50;;;;;;5054779;28;20040;-36
2021/08/02 03:07:23;;;;;;;7.97;4.13;;;13.80;90.70;;;;;;5054492;28;20051;-37
2021/08/02 03:09:49;;;;;;;9.10;4.55;;;13.70;90.90;;;;;;5054720;28;20029;-36
2021/08/02 03:12:15;;;;;;;12.20;4.57;;;13.80;90.90;;;;;;5054694;28;20519;-37
2021/08/02 03:14:41;;;;;;;5.20;3.50;;;13.80;90.50;;;;;;5053976;28;20110;-36
2021/08/02 03:17:08;;;;;;;10.60;4.70;;;13.90;90.20;;;;;;5054216;28;20155;-37
2021/08/02 03:19:35;;;;;;;10.00;4.50;;;13.90;90.20;;;;;;5054070;28;20027;-36
2021/08/02 03:22:06;;;;;;;9.60;5.35;;;13.80;90.50;;;;;;5054343;28;20048;-36
2021/08/02 03:24:41;;;;;;;13.50;4.40;;;13.60;91.00;;;;;;5054368;28;20035;-37
2021/08/02 03:27:20;;;;;;;7.63;3.72;;;13.70;90.90;;;;;;5052801;28;20104;-37
2021/08/02 03:29:49;;;;;;;6.07;4.15;;;13.60;90.90;;;;;;5054172;28;20106;-37
2021/08/02 03:32:17;;;;;;;8.43;4.72;;;13.50;91.40;;;;;;5054255;28;20095;-37
2021/08/02 03:34:46;;;;;;;6.47;4.18;;;13.50;91.60;;;;;;5053810;28;20028;-36
2021/08/02 03:37:16;;;;;;;7.25;3.90;;;13.50;91.20;;;;;;5053731;28;20465;-36
2021/08/02 03:39:44;;;;;;;5.97;3.60;;;13.70;90.70;;;;;;5054083;28;20075;-37
2021/08/02 03:42:12;;;;;;;11.80;4.18;;;13.60;90.50;;;;;;5053807;28;20017;-36
2021/08/02 03:44:38;;;;;;;9.27;3.97;;;13.70;89.60;;;;;;5053959;28;20024;-36
2021/08/02 03:47:04;;;;;;;7.20;3.42;;;13.80;89.20;;;;;;5054055;28;20029;-36
2021/08/02 03:49:31;;;;;;;4.25;3.58;;;13.70;89.60;;;;;;5053873;28;20029;-36
2021/08/02 03:51:59;;;;;;;7.72;3.55;;;13.70;89.80;;;;;;5053552;28;20491;-36
2021/08/02 03:54:26;;;;;;;6.85;3.22;;;13.60;90.00;;;;;;5053777;28;20473;-36
2021/08/02 03:56:53;;;;;;;8.05;3.72;;;13.60;90.50;;;;;;5053326;28;20033;-36
2021/08/02 03:59:19;;;;;;;12.75;5.22;;;13.60;90.80;;;;;;5053390;28;20467;-36
2021/08/02 04:01:46;;;;;;;8.88;4.07;;;13.70;89.80;;;;;;5053359;28;20025;-36
2021/08/02 04:04:13;;;;;;;10.15;4.32;;;13.70;89.80;;;;;;5053252;28;20108;-36
2021/08/02 04:06:39;;;;;;;11.88;3.70;;;13.80;89.50;;;;;;5053322;28;20099;-36
2021/08/02 04:09:08;;;;;;;9.77;4.00;;;13.70;89.80;;;;;;5053010;28;20025;-36
2021/08/02 04:11:34;;;;;;;12.40;4.15;;;13.80;89.40;;;;;;5053235;28;20361;-36
2021/08/02 04:14:00;;;;;;;6.50;3.65;;;13.90;88.20;;;;;;5052942;28;20029;-36
2021/08/02 04:16:26;;;;;;;10.35;4.30;;;14.00;87.60;;;;;;5052908;28;20483;-36
2021/08/02 04:18:52;;;;;;;10.35;3.95;;;14.00;88.10;;;;;;5053025;28;20025;-36
2021/08/02 04:21:18;;;;;;;12.80;4.18;;;14.00;88.20;;;;;;5053180;28;20096;-36
2021/08/02 04:23:44;;;;;;;9.02;4.40;;;14.10;88.30;;;;;;5053061;28;20469;-37
2021/08/02 04:26:12;;;;;;;5.15;3.35;;;14.00;88.80;;;;;;5052069;28;20043;-36
2021/08/02 04:28:42;;;;;;;6.90;3.28;;;13.90;88.90;;;;;;5051544;28;20477;-36
2021/08/02 04:31:08;;;;;;;11.57;3.25;;;13.80;89.70;;;;;;5051200;28;20044;-36
2021/08/02 04:33:34;;;;;;;8.73;3.42;;;14.00;89.90;;;;;;5052909;28;20461;-36
2021/08/02 04:36:00;;;;;;;11.70;4.05;;;14.00;89.50;;;;;;5053026;28;20031;-36
2021/08/02 04:38:25;;;;;;;5.03;4.05;;;13.90;89.80;;;;;;5052777;28;20028;-36
2021/08/02 04:40:51;;;;;;;6.60;3.83;;;14.00;90.40;;;;;;5053038;28;20021;-36
2021/08/02 04:43:16;;;;;;;7.05;4.00;;;14.00;89.90;;;;;;5052952;28;20071;-36
2021/08/02 04:45:42;;;;;;;7.18;4.18;;;13.90;90.20;;;;;;5052974;28;20020;-36
2021/08/02 04:48:08;;;;;;;5.47;3.53;;;14.00;90.40;;;;;;5052939;28;20104;-36
2021/08/02 04:50:33;;;;;;;10.98;3.85;;;14.20;89.80;;;;;;5052674;28;20110;-37
2021/08/02 04:52:59;;;;;;;9.25;4.68;;;14.20;89.70;;;;;;5052813;28;20357;-36
2021/08/02 04:55:24;;;;;;;8.18;4.05;;;14.30;89.40;;;;;;5052777;28;20033;-36
2021/08/02 04:57:50;;;;;;;4.93;4.07;;;14.10;89.90;;;;;;5052328;28;20420;-36
2021/08/02 05:00:16;;;;;;;8.48;4.40;;;14.00;90.50;;;;;;5052384;28;20108;-36
2021/08/02 05:02:42;;;;;;;6.90;4.28;;;14.10;90.60;;;;;;5052488;28;20021;-36
2021/08/02 05:05:08;;;;;;;5.70;3.85;;;14.10;90.90;;;;;;5053121;28;20071;-36
2021/08/02 05:07:33;;;;;;;6.80;4.63;;;14.20;90.10;;;;;;5052592;28;20039;-37
2021/08/02 05:09:59;;;;;;;5.35;4.03;;;14.30;89.50;;;;;;5052036;28;20497;-36
2021/08/02 05:12:25;;;;;;;7.50;4.45;;;14.30;89.40;;;;;;5052333;28;20565;-36
2021/08/02 05:14:50;;;;;;;7.72;4.43;;;14.50;89.00;;;;;;5052357;28;20029;-36
2021/08/02 05:17:16;;;;;;;11.15;5.10;;;14.30;89.30;;;;;;5052152;28;20461;-36
2021/08/02 05:19:42;;;;;;;12.00;5.00;;;14.30;89.10;;;;;;5051925;28;20029;-37
2021/08/02 05:22:07;;;;;;;8.50;4.65;;;14.20;89.50;;;;;;5051004;28;20029;-36
2021/08/02 05:24:33;;;;;;;6.55;4.57;;;14.30;89.50;;;;;;5050896;28;20029;-36
2021/08/02 05:27:00;;;;;;;7.07;4.32;;;14.00;90.40;;;;;;5050881;28;20366;-37
2021/08/02 05:29:26;;;;;;;12.10;4.60;;;14.20;90.30;;;;;;5052428;28;20099;-36
2021/08/02 05:31:51;;;;;;;11.95;5.55;;;14.30;89.70;;;;;;5051678;28;20183;-36
2021/08/02 05:34:17;;;;;;;13.48;4.88;;;14.40;89.40;;;;;;5052048;28;20031;-36
2021/08/02 05:36:43;;;;;;;8.88;5.00;;;14.40;89.20;;;;;;5053505;28;20025;-39
2021/08/02 05:39:09;;;;;;;9.07;4.60;;;14.30;89.80;;;;;;5056274;28;20032;-36
2021/08/02 05:41:34;;;;;;;7.05;4.55;;;14.10;90.30;;;;;;5055742;28;20025;-36
2021/08/02 05:44:00;;;;;;;9.32;4.93;;;13.90;91.00;;;;;;5055662;28;20564;-37
2021/08/02 05:46:26;;;;;;;7.75;4.60;;;14.10;91.20;;;;;;5055821;28;20128;-37
2021/08/02 05:48:52;;;;;;;10.85;5.38;;;14.30;90.50;;;;;;5055870;28;20039;-36
2021/08/02 05:51:18;;;;;;;12.73;4.70;;;14.40;90.00;;;;;;5055710;28;20029;-37
2021/08/02 05:53:43;;;;;;;12.60;5.28;;;14.50;89.70;;;;;;5055597;28;20020;-37
2021/08/02 05:56:11;;;;;;;8.10;5.10;;;14.60;88.90;;;;;;5055673;28;20025;-37
2021/08/02 05:58:37;;;;;;;7.45;4.53;;;14.70;88.00;;;;;;5054954;28;20021;-37
2021/08/02 06:01:03;;;;;;;8.63;4.35;;;14.80;88.10;;;;;;5055285;28;20093;-36
2021/08/02 06:03:29;;;;;;;11.02;4.93;;;14.90;86.70;;;;;;5055561;28;20021;-37
2021/08/02 06:05:54;;;;;;;9.00;3.90;;;14.90;87.00;;;;;;5055262;28;20024;-37
2021/08/02 06:08:24;;;;;;;10.30;4.80;;;14.80;87.20;;;;;;5055678;28;20029;-37
2021/08/02 06:10:50;;;;;;;9.80;5.00;;;14.80;87.50;;;;;;5054157;28;20074;-37
2021/08/02 06:13:15;;;;;;;9.02;4.50;;;15.10;86.60;;;;;;5054983;28;20532;-37
2021/08/02 06:15:41;;;;;;;7.00;4.22;;;15.20;86.40;;;;;;5055280;28;20032;-37
2021/08/02 06:18:06;;;;;;;5.68;4.15;;;15.30;85.00;;;;;;5055377;28;20104;-37
2021/08/02 06:20:32;;;;;;;6.53;3.00;;;15.30;85.10;;;;;;5053823;28;20031;-37
2021/08/02 06:22:58;;;;;;;4.35;3.00;;;15.20;85.00;;;;;;5055042;28;20029;-37
2021/08/02 06:25:23;;;;;;;9.23;3.45;;;15.30;84.50;;;;;;5055313;28;20410;-37
2021/08/02 06:27:49;;;;;;;11.55;4.82;;;15.30;83.70;;;;;;5054902;28;20052;-37
2021/08/02 06:30:15;;;;;;;14.60;3.30;;;15.40;84.40;;;;;;5054505;28;20049;-37
2021/08/02 06:32:41;;;;;;;7.93;3.95;;;15.80;83.60;;;;;;5054906;28;20079;-36
2021/08/02 06:35:07;;;;;;;7.75;2.97;;;15.60;84.30;;;;;;5053382;28;20493;-41
2021/08/02 06:37:33;;;;;;;3.92;3.22;;;15.50;83.90;;;;;;5054635;28;20086;-36
2021/08/02 06:39:58;;;;;;;5.32;3.10;;;15.60;83.50;;;;;;5054659;28;20109;-36
2021/08/02 06:42:24;;;;;;;5.28;2.70;;;15.80;82.10;;;;;;5054378;28;20086;-37
2021/08/02 06:44:50;;;;;;;7.22;2.63;;;15.70;82.30;;;;;;5054124;28;20037;-37
2021/08/02 06:47:16;;;;;;;7.93;2.60;;;15.80;82.00;;;;;;5053996;28;20033;-37
2021/08/02 06:49:41;;;;;;;4.80;2.83;;;15.80;82.30;;;;;;5053599;28;20031;-36
2021/08/02 06:52:07;;;;;;;7.22;2.47;;;15.70;82.60;;;;;;5053237;28;20025;-36
2021/08/02 06:54:33;;;;;;;8.02;2.85;;;15.80;81.50;;;;;;5052952;28;20565;-36
2021/08/02 06:56:58;;;;;;;8.75;3.42;;;15.70;82.40;;;;;;5054404;28;20087;-37
2021/08/02 06:59:24;;;;;;;3.28;2.42;;;15.80;81.90;;;;;;5054117;28;20028;-37
2021/08/02 07:01:50;;;;;;;6.93;3.20;;;16.20;80.50;;;;;;5053982;28;20029;-37
2021/08/02 07:04:15;;;;;;;10.27;3.15;;;16.20;79.80;;;;;;5054192;28;20049;-37
2021/08/02 07:06:43;;;;;;;5.47;2.58;;;16.40;79.90;;;;;;5053660;28;20049;-38
2021/08/02 07:09:09;;;;;;;9.73;2.53;;;16.40;78.60;;;;;;5053583;28;20071;-37
2021/08/02 07:11:35;;;;;;;4.65;2.28;;;16.50;78.20;;;;;;5053777;28;20029;-38
2021/08/02 07:14:00;;;;;;;5.35;2.30;;;16.50;77.70;;;;;;5052256;28;20059;-37
2021/08/02 07:16:26;;;;;;;11.07;2.67;;;16.60;78.20;;;;;;5053719;28;20025;-38
2021/08/02 07:18:53;;;;;;;3.45;1.73;;;16.70;78.10;;;;;;5053674;28;20024;-37
2021/08/02 07:21:20;;;;;;;7.53;3.33;;;17.00;77.40;;;;;;5053775;28;20021;-37
2021/08/02 07:23:46;;;;;;;9.90;3.08;;;17.20;76.00;;;;;;5052064;28;20021;-37
2021/08/02 07:26:15;;;;;;;2.92;2.30;;;17.40;75.20;;;;;;5053380;28;20044;-37
2021/08/02 07:28:42;;;;;;;12.18;2.92;;;17.20;75.40;;;;;;5053177;28;20100;-36
2021/08/02 07:31:08;;;;;;;3.42;1.92;;;17.30;74.50;;;;;;5053058;28;20064;-37
2021/08/02 07:33:34;;;;;;;11.93;3.13;;;17.30;74.20;;;;;;5053219;28;20028;-36
2021/08/02 07:36:00;;;;;;;6.63;2.42;;;17.30;73.90;;;;;;5052665;28;20496;-36
2021/08/02 07:38:25;;;;;;;8.07;2.75;;;17.30;75.20;;;;;;5053145;28;20025;-36
2021/08/02 07:40:51;;;;;;;6.00;2.00;;;17.50;74.60;;;;;;5052031;28;20083;-36
2021/08/02 07:43:17;;;;;;;3.38;1.50;;;17.30;73.90;;;;;;5053219;28;20020;-36
2021/08/02 07:45:43;;;;;;;3.13;1.58;;;17.10;73.80;;;;;;5053307;28;20409;-36
2021/08/02 07:48:08;;;;;;;3.85;1.75;;;16.80;74.60;;;;;;5053481;28;20036;-37
2021/08/02 07:50:34;;;;;;;5.93;1.92;;;17.10;73.90;;;;;;5053479;28;20100;-36
2021/08/02 07:53:00;;;;;;;8.65;1.85;;;17.30;74.20;;;;;;5053360;28;20086;-37
2021/08/02 07:55:25;;;;;;;5.82;1.88;;;17.20;74.20;;;;;;5051612;28;20036;-37
2021/08/02 07:57:51;;;;;;;3.15;2.03;;;17.30;74.20;;;;;;5053176;28;20048;-36
2021/08/02 08:00:17;;;;;;;5.03;2.30;;;17.30;74.50;;;;;;5051983;28;20100;-36
2021/08/02 08:02:44;;;;;;;5.25;2.45;;;17.20;75.10;;;;;;5052797;28;20029;-36
2021/08/02 08:05:11;;;;;;;6.45;1.80;;;17.10;75.80;;;;;;5052554;28;20017;-36
2021/08/02 08:07:48;;;;;;;6.30;1.70;;;17.40;75.10;;;;;;5053111;28;20041;-38
2021/08/02 08:10:25;;;;;;;4.93;1.35;;;17.30;73.60;;;;;;5051433;28;20044;-36
2021/08/02 08:12:52;;;;;;;3.55;1.63;;;17.30;72.30;;;;;;5052692;28;20481;-37
2021/08/02 08:15:21;;;;;;;14.57;8.57;;;17.60;71.10;;;;;;5052577;28;20033;-37
2021/08/02 08:17:47;;;;;;;4.10;2.17;;;17.60;71.70;;;;;;5052389;28;20074;-36
2021/08/02 08:20:16;;;;;;;4.18;1.73;;;17.80;70.90;;;;;;5050598;28;20449;-37
2021/08/02 08:22:41;;;;;;;2.53;1.35;;;18.30;70.60;;;;;;5052377;28;20059;-37
2021/08/02 08:25:08;;;;;;;3.00;1.67;;;18.60;67.30;;;;;;5052141;28;20048;-37
2021/08/02 08:27:34;;;;;;;1.85;1.20;;;18.30;67.00;;;;;;5050571;28;20035;-37
2021/08/02 08:30:00;;;;;;;4.10;1.33;;;18.20;68.60;;;;;;5050965;28;20100;-37
2021/08/02 08:32:27;;;;;;;6.15;1.48;;;18.50;66.50;;;;;;5052566;28;20028;-37
2021/08/02 08:34:53;;;;;;;4.50;1.60;;;18.30;67.40;;;;;;5052210;28;20117;-37
2021/08/02 08:37:19;;;;;;;4.78;1.20;;;18.60;66.90;;;;;;5052171;28;20185;-37
2021/08/02 08:39:44;;;;;;;4.22;1.67;;;18.20;67.10;;;;;;5051728;28;20021;-37
2021/08/02 08:42:13;;;;;;;4.22;1.10;;;18.10;67.60;;;;;;5051624;28;20095;-37
2021/08/02 08:44:39;;;;;;;4.95;1.13;;;18.50;66.90;;;;;;5051645;28;20028;-37
2021/08/02 08:47:05;;;;;;;3.65;1.15;;;18.60;66.30;;;;;;5052673;28;20346;-38
2021/08/02 08:49:31;;;;;;;5.90;1.27;;;18.50;67.40;;;;;;5052011;28;20040;-38
2021/08/02 08:51:57;;;;;;;4.80;2.20;;;18.80;65.40;;;;;;5051570;28;20396;-37
2021/08/02 08:54:23;;;;;;;5.88;2.30;;;19.10;63.30;;;;;;5051304;28;20380;-38
2021/08/02 08:56:49;;;;;;;3.92;1.85;;;18.80;65.50;;;;;;5051194;28;20029;-38
2021/08/02 08:59:16;;;;;;;4.28;1.63;;;18.30;65.70;;;;;;5050950;28;20025;-37
2021/08/02 09:01:42;;;;;;;4.15;2.30;;;18.80;63.80;;;;;;5051158;28;20025;-36
2021/08/02 09:04:11;;;;;;;4.47;2.30;;;18.60;64.70;;;;;;5050450;28;20032;-38
2021/08/02 09:06:46;;;;;;;11.10;2.60;;;18.70;65.80;;;;;;5052123;28;20063;-37
2021/08/02 09:09:23;;;;;;;4.65;2.05;;;18.80;66.10;;;;;;5051661;28;20082;-37
2021/08/02 09:11:48;;;;;;;2.22;1.63;;;19.30;64.60;;;;;;5053607;28;20033;-38
2021/08/02 09:14:17;;;;;;;4.75;2.70;;;19.70;62.20;;;;;;5054366;28;20337;-38
2021/08/02 09:16:52;;;;;;;8.13;3.10;;;19.30;63.10;;;;;;5055573;28;20065;-38
2021/08/02 09:19:18;;;;;;;6.60;4.03;;;20.00;60.90;;;;;;5056149;28;20021;-37
2021/08/02 09:21:54;;;;;;;5.05;2.08;;;21.20;57.70;;;;;;5055776;28;20021;-37
2021/08/02 09:24:34;;;;;;;8.57;3.75;;;21.80;55.10;;;;;;5055738;28;20025;-37
2021/08/02 09:26:59;;;;;;;3.30;2.28;;;21.20;56.40;;;;;;5055478;28;20021;-37
2021/08/02 09:29:30;;;;;;;3.78;2.88;;;22.00;53.70;;;;;;5055558;28;20515;-37
2021/08/02 09:31:56;;;;;;;;;;;20.50;57.00;;;;;;5055922;28;20045;-37
2021/08/02 09:34:23;;;;;;;4.80;2.78;;;20.60;56.40;;;;;;5055879;28;19905;-37
2021/08/02 09:36:55;;;;;;;1.92;1.83;;;20.50;56.70;;;;;;5055593;28;20448;-37
2021/08/02 09:39:21;;;;;;;4.10;2.53;;;21.20;54.30;;;;;;5055240;28;20032;-37
2021/08/02 09:41:47;;;;;;;5.97;2.22;;;21.20;53.80;;;;;;5055492;28;20025;-36
2021/08/02 09:44:25;;;;;;;4.60;1.80;;;19.80;58.10;;;;;;5054897;28;20142;-37
2021/08/02 09:46:55;;;;;;;3.50;1.60;;;19.80;58.00;;;;;;5054978;28;20025;-37
2021/08/02 09:49:21;;;;;;;;;;;19.10;61.00;;;;;;5054177;28;20029;-37
2021/08/02 09:51:47;;;;;;;2.95;1.58;;;19.30;61.00;;;;;;5053400;28;19923;-37
2021/08/02 09:54:29;;;;;;;5.55;2.10;;;19.20;63.00;;;;;;5054788;28;20106;-37
2021/08/02 09:56:55;;;;;;;6.30;3.08;;;20.10;59.30;;;;;;5054886;28;20120;-36
2021/08/02 09:59:22;;;;;;;9.10;3.85;;;20.50;56.80;;;;;;5054909;28;20092;-36
2021/08/02 10:01:49;;;;;;;8.55;2.95;;;20.30;56.00;;;;;;5036837;28;20017;-37
2021/08/02 10:04:16;;;;;;;6.25;2.95;;;19.60;56.00;;;;;;5054556;28;20021;-37
2021/08/02 10:06:42;;;;;;;4.05;2.30;;;19.30;58.20;;;;;;5053370;28;20029;-36
2021/08/02 10:09:10;;;;;;;4.35;2.47;;;18.60;61.20;;;;;;5054751;28;20029;-37
2021/08/02 10:11:36;;;;;;;3.88;2.85;;;18.70;62.30;;;;;;5055388;28;20473;-38
2021/08/02 10:14:03;;;;;;;4.68;2.35;;;18.60;62.50;;;;;;5054768;28;20029;-36
2021/08/02 10:16:29;;;;;;;5.65;2.10;;;18.60;61.90;;;;;;5053957;28;20021;-36
2021/08/02 10:19:03;;;;;;;7.95;2.20;;;20.20;58.80;;;;;;5054580;28;20381;-38
2021/08/02 10:21:43;;;;;;;6.72;2.08;;;21.80;53.50;;;;;;5054873;28;20370;-35
2021/08/02 10:24:12;;;;;;;2.53;1.00;;;23.80;49.10;;;;;;5053513;28;20060;-36
2021/08/02 10:26:38;;;;;;;3.13;1.50;;;22.60;48.80;;;;;;5052972;28;20401;-36
2021/08/02 10:29:09;;;;;;;3.08;1.33;;;20.70;52.80;;;;;;5054290;28;20085;-36
2021/08/02 10:31:53;;;;;;;2.70;1.58;;;20.80;53.90;;;;;;5053236;28;20106;-37
2021/08/02 10:34:21;;;;;;;4.97;1.40;;;20.20;55.80;;;;;;5052994;28;20480;-37
2021/08/02 10:37:03;;;;;;;7.70;2.17;;;19.30;57.60;;;;;;5053833;28;20025;-37
2021/08/02 10:39:31;;;;;;;2.45;1.63;;;19.50;57.80;;;;;;5054240;28;20350;-37
2021/08/02 10:42:12;;;;;;;3.97;1.50;;;19.70;58.30;;;;;;5054092;28;20017;-37
2021/08/02 10:44:38;;;;;;;2.03;1.60;;;19.60;60.40;;;;;;5054063;28;20085;-37
2021/08/02 10:47:09;;;;;;;6.13;2.30;;;19.50;59.90;;;;;;5052806;28;20029;-38
2021/08/02 10:49:35;;;;;;;3.50;2.03;;;19.00;61.00;;;;;;5054512;28;20123;-38
2021/08/02 10:52:01;;;;;;;2.97;1.73;;;19.90;58.90;;;;;;5054918;28;20044;-36
2021/08/02 10:54:38;;;;;;;2.22;1.38;;;21.60;53.70;;;;;;5054083;28;20021;-37
2021/08/02 10:57:13;;;;;;;2.75;1.10;;;22.80;49.90;;;;;;5052847;28;20028;-37
2021/08/02 10:59:38;;;;;;;1.48;1.17;;;23.30;49.00;;;;;;5054389;28;20104;-37
2021/08/02 11:02:13;;;;;;;5.47;1.73;;;23.70;47.60;;;;;;5053652;28;20421;-37
2021/08/02 11:04:42;;;;;;;2.28;1.25;;;22.40;47.90;;;;;;5036133;28;20475;-36
2021/08/02 11:07:08;;;;;;;1.85;1.20;;;21.90;48.20;;;;;;5054367;28;20025;-37
2021/08/02 11:09:37;;;;;;;3.78;1.60;;;21.70;50.30;;;;;;5054233;28;20033;-37
2021/08/02 11:12:10;;;;;;;1.85;1.38;;;22.30;48.40;;;;;;5053606;28;20033;-38
2021/08/02 11:14:53;;;;;;;4.28;1.48;;;23.80;45.20;;;;;;5052707;28;20029;-38
2021/08/02 11:17:22;;;;;;;1.73;1.30;;;25.00;42.50;;;;;;5053424;28;20021;-37
2021/08/02 11:19:47;;;;;;;3.03;1.85;;;23.80;43.10;;;;;;5053136;28;20033;-38
2021/08/02 11:22:15;;;;;;;2.70;2.00;;;24.20;43.20;;;;;;5053512;28;20025;-37
2021/08/02 11:24:57;;;;;;;1.55;1.17;;;23.90;43.30;;;;;;5053776;28;20170;-37
2021/08/02 11:27:23;;;;;;;3.80;1.63;;;22.30;47.20;;;;;;5053056;28;20036;-37
2021/08/02 11:29:51;;;;;;;7.13;1.40;;;22.10;48.10;;;;;;5053022;28;20496;-37
2021/08/02 11:32:19;;;;;;;3.17;1.45;;;21.40;50.10;;;;;;5052980;28;20032;-36
2021/08/02 11:34:52;;;;;;;7.28;1.50;;;20.50;52.70;;;;;;5051713;28;20025;-38
2021/08/02 11:37:21;;;;;;;3.70;1.73;;;20.80;51.80;;;;;;5052952;28;20495;-38
2021/08/02 11:39:56;;;;;;;;;;;20.80;52.40;;;;;;5053559;28;20448;-36
2021/08/02 11:42:22;;;;;;;3.75;1.17;;;20.90;52.10;;;;;;5052772;28;20315;-36
2021/08/02 11:44:52;;;;;;;4.07;1.48;;;21.30;51.20;;;;;;5053042;28;20021;-37
2021/08/02 11:47:26;;;;;;;4.28;1.42;;;21.70;50.40;;;;;;5053154;28;20089;-37
2021/08/02 11:49:55;;;;;;;11.98;2.80;;;22.00;48.80;;;;;;5052654;28;20031;-37
2021/08/02 11:52:23;;;;;;;4.13;1.27;;;22.00;48.50;;;;;;5052047;28;20124;-37
2021/08/02 11:55:12;;;;;;;4.72;2.05;;;22.30;48.00;;;;;;5053491;28;20495;-37
2021/08/02 11:57:38;;;;;;;1.48;1.23;;;22.50;47.60;;;;;;5053129;28;20025;-37
2021/08/02 12:00:15;;;;;;;5.03;1.48;;;22.80;46.00;;;;;;5051435;28;20029;-38
2021/08/02 12:02:45;;;;;;;4.78;1.80;;;22.30;47.30;;;;;;5052986;28;20048;-36
2021/08/02 12:05:31;;;;;;;;;;;22.00;49.20;;;;;;5053070;28;20021;-37
2021/08/02 12:08:18;;;;;;;3.60;1.92;;;22.40;49.30;;;;;;5052614;28;19905;-36
2021/08/02 12:10:55;;;;;;;6.63;1.45;;;22.70;47.30;;;;;;5052750;28;20029;-36
2021/08/02 12:13:21;;;;;;;5.68;2.30;;;22.80;48.10;;;;;;5052855;28;20531;-36
2021/08/02 12:15:52;;;;;;;1.40;1.30;;;23.50;46.20;;;;;;5052642;28;20021;-37
2021/08/02 12:18:26;;;;;;;3.30;1.60;;;24.60;42.00;;;;;;5052063;28;20025;-37
2021/08/02 12:20:53;;;;;;;3.60;1.50;;;24.00;43.80;;;;;;5051195;28;20041;-37
2021/08/02 12:23:24;;;;;;;1.85;1.50;;;23.20;45.00;;;;;;5052791;28;20025;-37
2021/08/02 12:25:50;;;;;;;3.58;1.45;;;21.70;48.90;;;;;;5052634;28;20385;-37
2021/08/02 12:28:16;;;;;;;5.45;1.70;;;21.40;49.80;;;;;;5050953;28;20032;-37
2021/08/02 12:30:43;;;;;;;4.95;2.17;;;21.60;49.80;;;;;;5052164;28;20075;-39
2021/08/02 12:33:11;;;;;;;7.10;1.67;;;21.90;49.80;;;;;;5052442;28;20040;-38
2021/08/02 12:35:38;;;;;;;3.78;1.73;;;22.30;48.10;;;;;;5052362;28;20035;-37
2021/08/02 12:38:05;;;;;;;1.80;1.10;;;22.10;48.90;;;;;;5053224;28;20504;-37
2021/08/02 12:40:32;;;;;;;8.45;2.72;;;21.90;49.20;;;;;;5052803;28;20081;-37
2021/08/02 12:42:59;;;;;;;2.78;1.90;;;22.10;48.90;;;;;;5052529;28;20108;-37
2021/08/02 12:45:26;;;;;;;3.35;1.40;;;21.90;48.30;;;;;;5051185;28;20036;-37
2021/08/02 12:47:52;;;;;;;3.55;1.80;;;22.10;48.10;;;;;;5052449;28;20423;-37
2021/08/02 12:50:19;;;;;;;3.88;2.15;;;22.30;48.00;;;;;;5052280;28;20071;-37
2021/08/02 12:52:46;;;;;;;6.25;1.70;;;22.50;47.00;;;;;;5052194;28;20021;-41